Terminal Aerodrome Forecast
Issued by NWS Missoula, MT

Home | Current Version | Previous Version | Text Only | Print | Product List | Glossary On
Versions: 1 2 3 4 5 6 7 8 9 10 11 12 13
000
FTUS45 KMSO 181120
TAFBTM
TAF
KBTM 181120Z 1812/1912 00000KT P6SM FEW110
     FM181300 20010KT P6SM -SHRA BKN070 OVC100
     FM182000 22010G18KT P6SM -SHRA BKN070=

USA.gov is the U.S. government's official web portal to all federal, state and local government web resources and services.